createdAt,value
2023-02-12T00:10:18.322Z,9.77
2023-02-12T00:25:20.163Z,10.40
2023-02-12T00:40:22.346Z,9.03
2023-02-12T00:55:24.188Z,9.33
2023-02-12T01:10:26.629Z,8.90
2023-02-12T01:25:28.439Z,10.70
2023-02-12T01:40:30.838Z,8.03
2023-02-12T01:55:33.075Z,7.73
2023-02-12T02:10:35.188Z,6.43
2023-02-12T02:25:51.361Z,7.73
2023-02-12T02:41:09.736Z,6.18
2023-02-12T02:56:16.312Z,7.13
2023-02-12T03:11:29.093Z,6.77
2023-02-12T03:26:48.630Z,8.17
2023-02-12T03:42:15.851Z,8.57
2023-02-12T03:57:24.011Z,8.53
2023-02-12T04:12:54.751Z,8.70
2023-02-12T04:28:11.047Z,7.73
2023-02-12T04:58:15.734Z,11.20
2023-02-12T05:13:17.511Z,8.70
2023-02-12T05:28:19.583Z,9.77
2023-02-12T05:43:21.754Z,10.27
2023-02-12T05:58:23.566Z,9.63
2023-02-12T06:13:25.535Z,11.53
2023-02-12T06:28:27.378Z,12.67
2023-02-12T06:43:29.785Z,12.87
2023-02-12T06:58:31.894Z,12.40
2023-02-12T07:13:37.032Z,12.60
2023-02-12T07:28:39.835Z,10.63
2023-02-12T07:43:43.973Z,11.77
2023-02-12T07:58:48.092Z,11.77
2023-02-12T08:13:50.476Z,10.00
2023-02-12T08:28:55.505Z,9.87
2023-02-12T08:44:01.881Z,9.47
2023-02-12T08:59:06.139Z,8.83
2023-02-12T09:14:11.578Z,6.27
2023-02-12T09:29:13.405Z,2.30
2023-02-12T09:44:23.766Z,1.60
2023-02-12T09:59:33.868Z,1.50
2023-02-12T10:14:44.887Z,1.30
2023-02-12T10:29:49.104Z,0.90
2023-02-12T10:44:51.463Z,1.50
2023-02-12T10:59:57.589Z,1.30
2023-02-12T11:30:22.291Z,7.53
2023-02-12T11:45:32.927Z,1.50
2023-02-12T12:00:42.368Z,1.00
2023-02-12T12:16:07.642Z,1.30
2023-02-12T12:31:17.367Z,1.30
2023-02-12T12:46:24.721Z,1.20
2023-02-12T13:01:48.349Z,1.93
2023-02-12T13:17:04.749Z,1.73
2023-02-12T13:32:27.480Z,1.50
2023-02-12T13:48:01.155Z,1.47
2023-02-12T14:03:09.654Z,1.20
2023-02-12T14:18:29.369Z,1.80
2023-02-12T14:33:31.265Z,1.60
2023-02-12T14:48:54.107Z,1.40
2023-02-12T15:03:59.269Z,1.50
2023-02-12T15:19:39.623Z,1.70
2023-02-12T15:34:43.424Z,2.00
2023-02-12T15:49:46.031Z,2.00
2023-02-12T16:04:48.544Z,3.30
2023-02-12T16:20:20.720Z,2.07
2023-02-12T16:35:32.048Z,2.70
2023-02-12T16:50:36.829Z,1.73
2023-02-12T17:05:45.472Z,1.43
2023-02-12T17:20:54.378Z,2.17
2023-02-12T17:35:58.760Z,1.77
2023-02-12T17:51:01.167Z,2.37
2023-02-12T18:06:03.926Z,2.50
2023-02-12T18:21:11.094Z,2.20
2023-02-12T18:36:15.892Z,1.80
2023-02-12T18:51:24.444Z,2.63
2023-02-12T19:06:31.052Z,2.30
2023-02-12T19:21:32.990Z,2.27
2023-02-12T19:36:36.548Z,2.60
2023-02-12T19:51:40.071Z,2.80
2023-02-12T20:06:43.633Z,2.33
2023-02-12T20:21:48.851Z,2.10
2023-02-12T20:36:50.864Z,1.90
2023-02-12T20:51:53.308Z,1.83
2023-02-12T21:06:55.190Z,1.80
2023-02-12T21:21:57.098Z,1.80
2023-02-12T21:36:59.019Z,2.67
2023-02-12T21:52:04.504Z,1.83
2023-02-12T22:07:06.538Z,1.97
2023-02-12T22:22:08.366Z,2.07
2023-02-12T22:37:10.399Z,1.87
2023-02-12T22:52:29.130Z,2.37
2023-02-12T23:07:30.940Z,2.03
2023-02-12T23:22:32.771Z,1.30
2023-02-12T23:37:34.598Z,2.10
2023-02-12T23:52:37.034Z,1.90
